sensor_id;sensor_type;location;lat;lon;timestamp;P1;durP1;ratioP1;P2;durP2;ratioP2
36137;SDS011;67787;50.074;21.904;2024-02-15T00:00:52;30.30;;;14.40;;
36137;SDS011;67787;50.074;21.904;2024-02-15T00:03:37;29.90;;;13.90;;
36137;SDS011;67787;50.074;21.904;2024-02-15T00:06:05;31.40;;;15.20;;
36137;SDS011;67787;50.074;21.904;2024-02-15T00:08:33;34.10;;;17.00;;
36137;SDS011;67787;50.074;21.904;2024-02-15T00:11:01;34.70;;;16.40;;
36137;SDS011;67787;50.074;21.904;2024-02-15T00:13:29;33.00;;;15.40;;
36137;SDS011;67787;50.074;21.904;2024-02-15T00:15:58;30.10;;;14.40;;
36137;SDS011;67787;50.074;21.904;2024-02-15T00:18:26;31.50;;;14.50;;
36137;SDS011;67787;50.074;21.904;2024-02-15T00:20:54;33.60;;;14.50;;
36137;SDS011;67787;50.074;21.904;2024-02-15T00:23:22;35.40;;;16.90;;
36137;SDS011;67787;50.074;21.904;2024-02-15T00:25:50;33.20;;;17.30;;
36137;SDS011;67787;50.074;21.904;2024-02-15T00:28:18;33.00;;;16.90;;
36137;SDS011;67787;50.074;21.904;2024-02-15T00:30:45;39.40;;;16.70;;
36137;SDS011;67787;50.074;21.904;2024-02-15T00:33:14;32.70;;;16.50;;
36137;SDS011;67787;50.074;21.904;2024-02-15T00:35:42;33.30;;;16.40;;
36137;SDS011;67787;50.074;21.904;2024-02-15T00:38:10;31.10;;;15.90;;
36137;SDS011;67787;50.074;21.904;2024-02-15T00:40:38;41.20;;;18.30;;
36137;SDS011;67787;50.074;21.904;2024-02-15T00:43:07;40.30;;;17.60;;
36137;SDS011;67787;50.074;21.904;2024-02-15T00:45:35;33.90;;;16.80;;
36137;SDS011;67787;50.074;21.904;2024-02-15T00:48:03;34.30;;;15.30;;
36137;SDS011;67787;50.074;21.904;2024-02-15T00:50:34;39.40;;;18.10;;
36137;SDS011;67787;50.074;21.904;2024-02-15T00:53:02;42.80;;;18.20;;
36137;SDS011;67787;50.074;21.904;2024-02-15T00:55:31;31.70;;;16.70;;
36137;SDS011;67787;50.074;21.904;2024-02-15T00:57:59;33.00;;;16.00;;
36137;SDS011;67787;50.074;21.904;2024-02-15T01:00:27;29.80;;;14.80;;
36137;SDS011;67787;50.074;21.904;2024-02-15T01:02:56;30.60;;;15.50;;
36137;SDS011;67787;50.074;21.904;2024-02-15T01:05:23;28.30;;;14.50;;
36137;SDS011;67787;50.074;21.904;2024-02-15T01:07:51;33.40;;;14.10;;
36137;SDS011;67787;50.074;21.904;2024-02-15T01:10:19;31.10;;;14.60;;
36137;SDS011;67787;50.074;21.904;2024-02-15T01:12:47;28.30;;;14.50;;
36137;SDS011;67787;50.074;21.904;2024-02-15T01:15:16;31.90;;;14.40;;
36137;SDS011;67787;50.074;21.904;2024-02-15T01:17:46;31.60;;;15.60;;
36137;SDS011;67787;50.074;21.904;2024-02-15T01:20:14;33.10;;;15.00;;
36137;SDS011;67787;50.074;21.904;2024-02-15T01:22:43;28.10;;;15.00;;
36137;SDS011;67787;50.074;21.904;2024-02-15T01:25:11;29.10;;;13.60;;
36137;SDS011;67787;50.074;21.904;2024-02-15T01:27:40;26.50;;;12.90;;
36137;SDS011;67787;50.074;21.904;2024-02-15T01:30:08;26.90;;;12.50;;
36137;SDS011;67787;50.074;21.904;2024-02-15T01:32:36;21.90;;;12.20;;
36137;SDS011;67787;50.074;21.904;2024-02-15T01:35:04;23.80;;;12.70;;
36137;SDS011;67787;50.074;21.904;2024-02-15T01:37:32;23.30;;;11.90;;
36137;SDS011;67787;50.074;21.904;2024-02-15T01:40:00;27.30;;;12.80;;
36137;SDS011;67787;50.074;21.904;2024-02-15T01:42:28;25.70;;;13.00;;
36137;SDS011;67787;50.074;21.904;2024-02-15T01:44:56;23.50;;;12.50;;
36137;SDS011;67787;50.074;21.904;2024-02-15T01:47:24;27.70;;;13.10;;
36137;SDS011;67787;50.074;21.904;2024-02-15T01:49:52;24.20;;;12.20;;
36137;SDS011;67787;50.074;21.904;2024-02-15T01:52:20;24.10;;;12.30;;
36137;SDS011;67787;50.074;21.904;2024-02-15T01:54:50;27.90;;;12.50;;
36137;SDS011;67787;50.074;21.904;2024-02-15T01:57:20;24.70;;;11.70;;
36137;SDS011;67787;50.074;21.904;2024-02-15T01:59:50;24.40;;;12.40;;
36137;SDS011;67787;50.074;21.904;2024-02-15T02:02:21;22.70;;;11.60;;
36137;SDS011;67787;50.074;21.904;2024-02-15T02:04:52;23.90;;;11.90;;
36137;SDS011;67787;50.074;21.904;2024-02-15T02:07:20;26.00;;;11.50;;
36137;SDS011;67787;50.074;21.904;2024-02-15T02:09:48;24.00;;;12.00;;
36137;SDS011;67787;50.074;21.904;2024-02-15T02:12:16;24.10;;;12.00;;
36137;SDS011;67787;50.074;21.904;2024-02-15T02:14:45;28.60;;;15.10;;
36137;SDS011;67787;50.074;21.904;2024-02-15T02:17:13;26.50;;;13.50;;
36137;SDS011;67787;50.074;21.904;2024-02-15T02:19:42;24.50;;;12.50;;
36137;SDS011;67787;50.074;21.904;2024-02-15T02:22:11;26.40;;;12.10;;
36137;SDS011;67787;50.074;21.904;2024-02-15T02:27:31;20.90;;;10.70;;
36137;SDS011;67787;50.074;21.904;2024-02-15T02:30:00;20.20;;;9.10;;
36137;SDS011;67787;50.074;21.904;2024-02-15T02:32:28;23.40;;;10.30;;
36137;SDS011;67787;50.074;21.904;2024-02-15T02:34:56;21.50;;;10.30;;
36137;SDS011;67787;50.074;21.904;2024-02-15T02:37:25;20.90;;;10.10;;
36137;SDS011;67787;50.074;21.904;2024-02-15T02:39:53;21.00;;;10.30;;
36137;SDS011;67787;50.074;21.904;2024-02-15T02:42:20;15.20;;;9.30;;
36137;SDS011;67787;50.074;21.904;2024-02-15T02:44:48;18.00;;;9.40;;
36137;SDS011;67787;50.074;21.904;2024-02-15T02:47:16;21.40;;;10.50;;
36137;SDS011;67787;50.074;21.904;2024-02-15T02:49:44;20.20;;;8.80;;
36137;SDS011;67787;50.074;21.904;2024-02-15T02:52:12;21.40;;;9.10;;
36137;SDS011;67787;50.074;21.904;2024-02-15T02:54:40;17.00;;;8.90;;
36137;SDS011;67787;50.074;21.904;2024-02-15T02:57:08;17.30;;;8.10;;
36137;SDS011;67787;50.074;21.904;2024-02-15T02:59:36;16.80;;;8.20;;
36137;SDS011;67787;50.074;21.904;2024-02-15T03:02:07;17.10;;;8.00;;
36137;SDS011;67787;50.074;21.904;2024-02-15T03:04:36;17.00;;;8.00;;
36137;SDS011;67787;50.074;21.904;2024-02-15T03:07:06;16.50;;;8.30;;
36137;SDS011;67787;50.074;21.904;2024-02-15T03:09:34;15.00;;;7.60;;
36137;SDS011;67787;50.074;21.904;2024-02-15T03:12:04;15.70;;;7.80;;
36137;SDS011;67787;50.074;21.904;2024-02-15T03:14:32;15.70;;;7.30;;
36137;SDS011;67787;50.074;21.904;2024-02-15T03:17:03;14.90;;;7.30;;
36137;SDS011;67787;50.074;21.904;2024-02-15T03:19:31;11.40;;;6.80;;
36137;SDS011;67787;50.074;21.904;2024-02-15T03:21:58;12.50;;;7.00;;
36137;SDS011;67787;50.074;21.904;2024-02-15T03:24:27;15.60;;;8.20;;
36137;SDS011;67787;50.074;21.904;2024-02-15T03:26:55;15.20;;;7.40;;
36137;SDS011;67787;50.074;21.904;2024-02-15T03:29:23;18.00;;;8.70;;
36137;SDS011;67787;50.074;21.904;2024-02-15T03:31:52;15.70;;;8.10;;
36137;SDS011;67787;50.074;21.904;2024-02-15T03:34:22;16.20;;;8.80;;
36137;SDS011;67787;50.074;21.904;2024-02-15T03:36:51;17.00;;;9.10;;
36137;SDS011;67787;50.074;21.904;2024-02-15T03:39:21;27.80;;;13.50;;
36137;SDS011;67787;50.074;21.904;2024-02-15T03:41:51;39.50;;;17.80;;
36137;SDS011;67787;50.074;21.904;2024-02-15T03:44:21;33.00;;;17.70;;
36137;SDS011;67787;50.074;21.904;2024-02-15T03:46:53;30.90;;;16.10;;
36137;SDS011;67787;50.074;21.904;2024-02-15T03:49:25;26.20;;;13.30;;
36137;SDS011;67787;50.074;21.904;2024-02-15T03:51:53;36.10;;;16.40;;
36137;SDS011;67787;50.074;21.904;2024-02-15T03:54:22;34.10;;;17.20;;
36137;SDS011;67787;50.074;21.904;2024-02-15T03:56:51;34.20;;;15.70;;
36137;SDS011;67787;50.074;21.904;2024-02-15T03:59:20;27.40;;;15.00;;
36137;SDS011;67787;50.074;21.904;2024-02-15T04:01:54;30.90;;;16.00;;
36137;SDS011;67787;50.074;21.904;2024-02-15T04:04:22;28.50;;;14.20;;
36137;SDS011;67787;50.074;21.904;2024-02-15T04:06:50;26.90;;;13.50;;
36137;SDS011;67787;50.074;21.904;2024-02-15T04:09:22;26.60;;;13.70;;
36137;SDS011;67787;50.074;21.904;2024-02-15T04:11:49;29.30;;;14.70;;
36137;SDS011;67787;50.074;21.904;2024-02-15T04:14:21;29.30;;;15.70;;
36137;SDS011;67787;50.074;21.904;2024-02-15T04:16:49;28.50;;;14.30;;
36137;SDS011;67787;50.074;21.904;2024-02-15T04:19:16;23.50;;;11.80;;
36137;SDS011;67787;50.074;21.904;2024-02-15T04:21:47;22.00;;;11.60;;
36137;SDS011;67787;50.074;21.904;2024-02-15T04:24:15;22.80;;;12.00;;
36137;SDS011;67787;50.074;21.904;2024-02-15T04:26:43;19.20;;;10.70;;
36137;SDS011;67787;50.074;21.904;2024-02-15T04:29:13;19.90;;;10.10;;
36137;SDS011;67787;50.074;21.904;2024-02-15T04:31:42;20.10;;;10.00;;
36137;SDS011;67787;50.074;21.904;2024-02-15T04:34:10;23.60;;;12.00;;
36137;SDS011;67787;50.074;21.904;2024-02-15T04:36:39;25.70;;;12.90;;
36137;SDS011;67787;50.074;21.904;2024-02-15T04:39:06;26.70;;;12.00;;
36137;SDS011;67787;50.074;21.904;2024-02-15T04:41:34;24.50;;;11.30;;
36137;SDS011;67787;50.074;21.904;2024-02-15T04:44:02;21.70;;;12.60;;
36137;SDS011;67787;50.074;21.904;2024-02-15T04:46:31;26.20;;;12.60;;
36137;SDS011;67787;50.074;21.904;2024-02-15T04:48:59;23.70;;;10.60;;
36137;SDS011;67787;50.074;21.904;2024-02-15T04:51:29;22.30;;;10.70;;
36137;SDS011;67787;50.074;21.904;2024-02-15T04:53:57;20.30;;;10.40;;
36137;SDS011;67787;50.074;21.904;2024-02-15T04:56:25;23.80;;;10.90;;
36137;SDS011;67787;50.074;21.904;2024-02-15T04:58:53;18.30;;;9.50;;
36137;SDS011;67787;50.074;21.904;2024-02-15T05:01:21;16.80;;;9.30;;
36137;SDS011;67787;50.074;21.904;2024-02-15T05:03:50;17.30;;;9.10;;
36137;SDS011;67787;50.074;21.904;2024-02-15T05:06:18;16.10;;;8.00;;
36137;SDS011;67787;50.074;21.904;2024-02-15T05:08:46;18.40;;;9.50;;
36137;SDS011;67787;50.074;21.904;2024-02-15T05:11:15;17.10;;;8.00;;
36137;SDS011;67787;50.074;21.904;2024-02-15T05:13:45;18.10;;;9.10;;
36137;SDS011;67787;50.074;21.904;2024-02-15T05:16:13;19.10;;;10.40;;
36137;SDS011;67787;50.074;21.904;2024-02-15T05:18:41;18.30;;;8.50;;
36137;SDS011;67787;50.074;21.904;2024-02-15T05:21:09;15.60;;;8.60;;
36137;SDS011;67787;50.074;21.904;2024-02-15T05:23:38;15.50;;;8.10;;
36137;SDS011;67787;50.074;21.904;2024-02-15T05:26:11;13.40;;;7.50;;
36137;SDS011;67787;50.074;21.904;2024-02-15T05:28:40;17.60;;;8.20;;
36137;SDS011;67787;50.074;21.904;2024-02-15T05:31:08;17.30;;;7.30;;
36137;SDS011;67787;50.074;21.904;2024-02-15T05:33:38;12.20;;;6.80;;
36137;SDS011;67787;50.074;21.904;2024-02-15T05:36:12;10.60;;;6.30;;
36137;SDS011;67787;50.074;21.904;2024-02-15T05:38:40;18.40;;;7.30;;
36137;SDS011;67787;50.074;21.904;2024-02-15T05:41:09;17.00;;;8.50;;
36137;SDS011;67787;50.074;21.904;2024-02-15T05:43:37;15.00;;;6.80;;
36137;SDS011;67787;50.074;21.904;2024-02-15T05:46:06;13.00;;;6.70;;
36137;SDS011;67787;50.074;21.904;2024-02-15T05:48:35;17.10;;;8.50;;
36137;SDS011;67787;50.074;21.904;2024-02-15T05:51:05;14.20;;;7.50;;
36137;SDS011;67787;50.074;21.904;2024-02-15T05:53:34;14.50;;;7.60;;
36137;SDS011;67787;50.074;21.904;2024-02-15T05:56:06;13.60;;;7.50;;
36137;SDS011;67787;50.074;21.904;2024-02-15T05:58:36;12.70;;;7.30;;
36137;SDS011;67787;50.074;21.904;2024-02-15T06:01:04;16.00;;;7.80;;
36137;SDS011;67787;50.074;21.904;2024-02-15T06:03:34;13.40;;;7.40;;
36137;SDS011;67787;50.074;21.904;2024-02-15T06:06:06;15.50;;;8.70;;
36137;SDS011;67787;50.074;21.904;2024-02-15T06:08:35;16.90;;;8.20;;
36137;SDS011;67787;50.074;21.904;2024-02-15T06:11:03;13.40;;;7.10;;
36137;SDS011;67787;50.074;21.904;2024-02-15T06:13:33;17.80;;;8.20;;
36137;SDS011;67787;50.074;21.904;2024-02-15T06:16:00;18.40;;;7.90;;
36137;SDS011;67787;50.074;21.904;2024-02-15T06:18:28;16.60;;;8.30;;
36137;SDS011;67787;50.074;21.904;2024-02-15T06:20:59;15.60;;;7.80;;
36137;SDS011;67787;50.074;21.904;2024-02-15T06:23:28;19.40;;;8.50;;
36137;SDS011;67787;50.074;21.904;2024-02-15T06:25:56;16.70;;;8.50;;
36137;SDS011;67787;50.074;21.904;2024-02-15T06:28:25;15.10;;;8.40;;
36137;SDS011;67787;50.074;21.904;2024-02-15T06:31:13;15.80;;;7.60;;
36137;SDS011;67787;50.074;21.904;2024-02-15T06:34:00;13.70;;;7.60;;
36137;SDS011;67787;50.074;21.904;2024-02-15T06:36:47;17.60;;;7.90;;
36137;SDS011;67787;50.074;21.904;2024-02-15T06:39:35;12.60;;;7.30;;
36137;SDS011;67787;50.074;21.904;2024-02-15T06:42:16;14.80;;;7.30;;
36137;SDS011;67787;50.074;21.904;2024-02-15T06:44:49;16.40;;;7.60;;
36137;SDS011;67787;50.074;21.904;2024-02-15T06:47:17;16.40;;;8.00;;
36137;SDS011;67787;50.074;21.904;2024-02-15T06:49:46;14.60;;;7.70;;
36137;SDS011;67787;50.074;21.904;2024-02-15T06:52:17;16.70;;;8.30;;
36137;SDS011;67787;50.074;21.904;2024-02-15T06:54:45;13.80;;;7.30;;
36137;SDS011;67787;50.074;21.904;2024-02-15T06:57:13;20.50;;;8.30;;
36137;SDS011;67787;50.074;21.904;2024-02-15T06:59:45;18.20;;;7.50;;
36137;SDS011;67787;50.074;21.904;2024-02-15T07:02:14;16.40;;;8.50;;
36137;SDS011;67787;50.074;21.904;2024-02-15T07:04:44;17.20;;;7.60;;
36137;SDS011;67787;50.074;21.904;2024-02-15T07:07:12;12.90;;;7.20;;
36137;SDS011;67787;50.074;21.904;2024-02-15T07:09:42;11.20;;;6.30;;
36137;SDS011;67787;50.074;21.904;2024-02-15T07:12:09;13.60;;;6.60;;
36137;SDS011;67787;50.074;21.904;2024-02-15T07:14:38;11.40;;;6.10;;
36137;SDS011;67787;50.074;21.904;2024-02-15T07:17:06;8.90;;;5.70;;
36137;SDS011;67787;50.074;21.904;2024-02-15T07:19:34;12.50;;;6.20;;
36137;SDS011;67787;50.074;21.904;2024-02-15T07:22:04;12.90;;;6.50;;
36137;SDS011;67787;50.074;21.904;2024-02-15T07:24:32;12.60;;;6.50;;
36137;SDS011;67787;50.074;21.904;2024-02-15T07:26:59;12.40;;;6.80;;
36137;SDS011;67787;50.074;21.904;2024-02-15T07:29:27;13.00;;;5.80;;
36137;SDS011;67787;50.074;21.904;2024-02-15T07:31:55;10.60;;;5.50;;
36137;SDS011;67787;50.074;21.904;2024-02-15T07:34:23;11.40;;;5.70;;
36137;SDS011;67787;50.074;21.904;2024-02-15T07:36:51;10.20;;;6.00;;
36137;SDS011;67787;50.074;21.904;2024-02-15T07:39:19;11.10;;;5.70;;
36137;SDS011;67787;50.074;21.904;2024-02-15T07:41:52;11.80;;;6.00;;
36137;SDS011;67787;50.074;21.904;2024-02-15T07:44:22;8.80;;;5.80;;
36137;SDS011;67787;50.074;21.904;2024-02-15T07:46:50;11.90;;;5.90;;
36137;SDS011;67787;50.074;21.904;2024-02-15T07:49:18;13.40;;;6.40;;
36137;SDS011;67787;50.074;21.904;2024-02-15T07:51:46;9.30;;;5.60;;
36137;SDS011;67787;50.074;21.904;2024-02-15T07:54:20;10.40;;;6.10;;
36137;SDS011;67787;50.074;21.904;2024-02-15T07:56:49;11.50;;;6.50;;
36137;SDS011;67787;50.074;21.904;2024-02-15T07:59:17;9.90;;;6.00;;
36137;SDS011;67787;50.074;21.904;2024-02-15T08:01:45;9.70;;;5.80;;
36137;SDS011;67787;50.074;21.904;2024-02-15T08:06:46;11.50;;;6.10;;
36137;SDS011;67787;50.074;21.904;2024-02-15T08:09:16;11.50;;;5.90;;
36137;SDS011;67787;50.074;21.904;2024-02-15T08:11:45;11.30;;;5.80;;
36137;SDS011;67787;50.074;21.904;2024-02-15T08:14:13;10.40;;;5.70;;
36137;SDS011;67787;50.074;21.904;2024-02-15T08:16:41;10.90;;;6.20;;
36137;SDS011;67787;50.074;21.904;2024-02-15T08:19:09;10.90;;;5.90;;
36137;SDS011;67787;50.074;21.904;2024-02-15T08:21:39;12.70;;;6.30;;
36137;SDS011;67787;50.074;21.904;2024-02-15T08:24:09;11.80;;;6.80;;
36137;SDS011;67787;50.074;21.904;2024-02-15T08:26:38;10.00;;;5.80;;
36137;SDS011;67787;50.074;21.904;2024-02-15T08:29:07;9.60;;;5.70;;
36137;SDS011;67787;50.074;21.904;2024-02-15T08:31:35;11.80;;;6.00;;
36137;SDS011;67787;50.074;21.904;2024-02-15T08:34:03;12.40;;;6.80;;
36137;SDS011;67787;50.074;21.904;2024-02-15T08:36:38;11.50;;;5.80;;
36137;SDS011;67787;50.074;21.904;2024-02-15T08:39:07;11.50;;;5.40;;
36137;SDS011;67787;50.074;21.904;2024-02-15T08:41:39;10.00;;;5.30;;
36137;SDS011;67787;50.074;21.904;2024-02-15T08:44:07;11.80;;;5.80;;
36137;SDS011;67787;50.074;21.904;2024-02-15T08:46:39;10.40;;;5.90;;
36137;SDS011;67787;50.074;21.904;2024-02-15T08:49:07;8.90;;;5.00;;
36137;SDS011;67787;50.074;21.904;2024-02-15T08:51:35;10.20;;;5.80;;
36137;SDS011;67787;50.074;21.904;2024-02-15T08:54:03;11.80;;;5.50;;
36137;SDS011;67787;50.074;21.904;2024-02-15T08:56:31;10.60;;;5.70;;
36137;SDS011;67787;50.074;21.904;2024-02-15T08:59:01;10.20;;;5.80;;
36137;SDS011;67787;50.074;21.904;2024-02-15T09:01:31;8.10;;;5.60;;
36137;SDS011;67787;50.074;21.904;2024-02-15T09:03:59;12.20;;;5.80;;
36137;SDS011;67787;50.074;21.904;2024-02-15T09:06:27;8.20;;;5.80;;
36137;SDS011;67787;50.074;21.904;2024-02-15T09:08:55;10.40;;;5.70;;
36137;SDS011;67787;50.074;21.904;2024-02-15T09:11:28;8.60;;;4.70;;
36137;SDS011;67787;50.074;21.904;2024-02-15T09:13:57;10.70;;;5.20;;
36137;SDS011;67787;50.074;21.904;2024-02-15T09:16:25;10.40;;;5.40;;
36137;SDS011;67787;50.074;21.904;2024-02-15T09:18:53;10.40;;;5.50;;
36137;SDS011;67787;50.074;21.904;2024-02-15T09:21:21;9.70;;;5.90;;
36137;SDS011;67787;50.074;21.904;2024-02-15T09:23:49;9.00;;;5.30;;
36137;SDS011;67787;50.074;21.904;2024-02-15T09:26:17;9.80;;;5.20;;
36137;SDS011;67787;50.074;21.904;2024-02-15T09:28:45;9.80;;;5.60;;
36137;SDS011;67787;50.074;21.904;2024-02-15T09:31:13;9.50;;;5.80;;
36137;SDS011;67787;50.074;21.904;2024-02-15T09:33:41;10.60;;;5.50;;
36137;SDS011;67787;50.074;21.904;2024-02-15T09:36:09;9.50;;;4.80;;
36137;SDS011;67787;50.074;21.904;2024-02-15T09:38:37;10.20;;;6.00;;
36137;SDS011;67787;50.074;21.904;2024-02-15T09:41:05;11.30;;;6.50;;
36137;SDS011;67787;50.074;21.904;2024-02-15T09:43:37;11.30;;;5.70;;
36137;SDS011;67787;50.074;21.904;2024-02-15T09:46:05;10.80;;;6.10;;
36137;SDS011;67787;50.074;21.904;2024-02-15T09:48:34;12.30;;;6.10;;
36137;SDS011;67787;50.074;21.904;2024-02-15T09:51:03;12.50;;;6.30;;
36137;SDS011;67787;50.074;21.904;2024-02-15T09:53:31;10.00;;;6.00;;
36137;SDS011;67787;50.074;21.904;2024-02-15T09:55:59;10.90;;;6.00;;
36137;SDS011;67787;50.074;21.904;2024-02-15T09:58:32;11.10;;;5.90;;
36137;SDS011;67787;50.074;21.904;2024-02-15T10:01:03;11.90;;;6.60;;
36137;SDS011;67787;50.074;21.904;2024-02-15T10:03:38;12.60;;;6.20;;
36137;SDS011;67787;50.074;21.904;2024-02-15T10:06:08;12.80;;;6.50;;
36137;SDS011;67787;50.074;21.904;2024-02-15T10:08:37;11.60;;;6.10;;
36137;SDS011;67787;50.074;21.904;2024-02-15T10:11:09;14.40;;;7.60;;
36137;SDS011;67787;50.074;21.904;2024-02-15T10:13:38;11.40;;;7.30;;
36137;SDS011;67787;50.074;21.904;2024-02-15T10:16:16;14.80;;;7.10;;
36137;SDS011;67787;50.074;21.904;2024-02-15T10:18:46;15.90;;;7.60;;
36137;SDS011;67787;50.074;21.904;2024-02-15T10:21:23;14.80;;;7.50;;
36137;SDS011;67787;50.074;21.904;2024-02-15T10:24:04;14.30;;;7.60;;
36137;SDS011;67787;50.074;21.904;2024-02-15T10:26:33;14.60;;;7.70;;
36137;SDS011;67787;50.074;21.904;2024-02-15T10:29:09;13.70;;;7.40;;
36137;SDS011;67787;50.074;21.904;2024-02-15T10:31:39;17.60;;;7.80;;
36137;SDS011;67787;50.074;21.904;2024-02-15T10:34:19;12.70;;;6.80;;
36137;SDS011;67787;50.074;21.904;2024-02-15T10:36:48;14.70;;;7.30;;
36137;SDS011;67787;50.074;21.904;2024-02-15T10:39:18;12.20;;;7.10;;
36137;SDS011;67787;50.074;21.904;2024-02-15T10:41:51;14.70;;;7.20;;
36137;SDS011;67787;50.074;21.904;2024-02-15T10:44:21;14.20;;;7.80;;
36137;SDS011;67787;50.074;21.904;2024-02-15T10:46:51;13.90;;;7.60;;
36137;SDS011;67787;50.074;21.904;2024-02-15T10:49:20;14.20;;;8.50;;
36137;SDS011;67787;50.074;21.904;2024-02-15T10:51:56;11.90;;;7.30;;
36137;SDS011;67787;50.074;21.904;2024-02-15T10:57:14;12.30;;;6.70;;
36137;SDS011;67787;50.074;21.904;2024-02-15T10:59:55;12.20;;;6.70;;
36137;SDS011;67787;50.074;21.904;2024-02-15T11:03:35;15.20;;;7.30;;
36137;SDS011;67787;50.074;21.904;2024-02-15T11:06:04;15.30;;;7.30;;
36137;SDS011;67787;50.074;21.904;2024-02-15T11:08:35;17.60;;;8.40;;
36137;SDS011;67787;50.074;21.904;2024-02-15T11:11:04;21.40;;;8.10;;
36137;SDS011;67787;50.074;21.904;2024-02-15T11:13:32;15.50;;;7.20;;
36137;SDS011;67787;50.074;21.904;2024-02-15T11:16:01;21.30;;;8.20;;
36137;SDS011;67787;50.074;21.904;2024-02-15T11:21:17;14.30;;;7.70;;
36137;SDS011;67787;50.074;21.904;2024-02-15T11:23:46;14.70;;;8.50;;
36137;SDS011;67787;50.074;21.904;2024-02-15T11:32:41;19.30;;;7.90;;
36137;SDS011;67787;50.074;21.904;2024-02-15T11:35:24;13.90;;;7.50;;
36137;SDS011;67787;50.074;21.904;2024-02-15T11:37:54;18.00;;;8.10;;
36137;SDS011;67787;50.074;21.904;2024-02-15T11:43:00;16.40;;;8.80;;
36137;SDS011;67787;50.074;21.904;2024-02-15T11:45:29;16.80;;;8.00;;
36137;SDS011;67787;50.074;21.904;2024-02-15T11:48:07;16.50;;;7.90;;
36137;SDS011;67787;50.074;21.904;2024-02-15T11:50:39;15.00;;;7.60;;
36137;SDS011;67787;50.074;21.904;2024-02-15T11:53:08;14.80;;;8.00;;
36137;SDS011;67787;50.074;21.904;2024-02-15T11:55:39;13.30;;;8.30;;
36137;SDS011;67787;50.074;21.904;2024-02-15T11:58:09;15.00;;;8.60;;
36137;SDS011;67787;50.074;21.904;2024-02-15T12:00:39;17.30;;;8.20;;
36137;SDS011;67787;50.074;21.904;2024-02-15T12:03:26;14.30;;;8.70;;
36137;SDS011;67787;50.074;21.904;2024-02-15T12:06:30;23.80;;;11.20;;
36137;SDS011;67787;50.074;21.904;2024-02-15T12:09:18;19.90;;;12.00;;
36137;SDS011;67787;50.074;21.904;2024-02-15T12:12:06;29.70;;;17.60;;
36137;SDS011;67787;50.074;21.904;2024-02-15T12:14:59;36.30;;;19.50;;
36137;SDS011;67787;50.074;21.904;2024-02-15T12:17:47;42.60;;;23.90;;
36137;SDS011;67787;50.074;21.904;2024-02-15T12:20:35;39.10;;;19.20;;
36137;SDS011;67787;50.074;21.904;2024-02-15T12:23:03;51.90;;;30.30;;
36137;SDS011;67787;50.074;21.904;2024-02-15T12:28:04;39.20;;;19.50;;
36137;SDS011;67787;50.074;21.904;2024-02-15T12:30:33;35.80;;;19.10;;
36137;SDS011;67787;50.074;21.904;2024-02-15T12:33:09;36.30;;;18.10;;
36137;SDS011;67787;50.074;21.904;2024-02-15T12:35:39;33.00;;;18.70;;
36137;SDS011;67787;50.074;21.904;2024-02-15T12:38:07;50.00;;;19.60;;
36137;SDS011;67787;50.074;21.904;2024-02-15T12:40:37;29.40;;;17.30;;
36137;SDS011;67787;50.074;21.904;2024-02-15T12:43:12;34.60;;;18.60;;
36137;SDS011;67787;50.074;21.904;2024-02-15T12:45:40;36.20;;;20.10;;
36137;SDS011;67787;50.074;21.904;2024-02-15T12:48:09;34.10;;;19.10;;
36137;SDS011;67787;50.074;21.904;2024-02-15T12:50:39;36.20;;;19.00;;
36137;SDS011;67787;50.074;21.904;2024-02-15T12:53:07;36.90;;;18.20;;
36137;SDS011;67787;50.074;21.904;2024-02-15T12:55:36;37.80;;;17.80;;
36137;SDS011;67787;50.074;21.904;2024-02-15T12:58:15;35.80;;;17.40;;
36137;SDS011;67787;50.074;21.904;2024-02-15T13:00:44;34.30;;;18.30;;
36137;SDS011;67787;50.074;21.904;2024-02-15T13:03:12;33.50;;;18.20;;
36137;SDS011;67787;50.074;21.904;2024-02-15T13:05:43;30.20;;;17.30;;
36137;SDS011;67787;50.074;21.904;2024-02-15T13:08:12;39.10;;;17.70;;
36137;SDS011;67787;50.074;21.904;2024-02-15T13:10:43;34.10;;;16.40;;
36137;SDS011;67787;50.074;21.904;2024-02-15T13:13:12;31.10;;;17.50;;
36137;SDS011;67787;50.074;21.904;2024-02-15T13:15:44;32.40;;;15.40;;
36137;SDS011;67787;50.074;21.904;2024-02-15T13:18:13;32.20;;;16.50;;
36137;SDS011;67787;50.074;21.904;2024-02-15T13:20:43;30.30;;;16.40;;
36137;SDS011;67787;50.074;21.904;2024-02-15T13:23:10;28.90;;;16.90;;
36137;SDS011;67787;50.074;21.904;2024-02-15T13:25:53;34.00;;;17.50;;
36137;SDS011;67787;50.074;21.904;2024-02-15T13:28:24;31.80;;;15.70;;
36137;SDS011;67787;50.074;21.904;2024-02-15T13:30:52;27.60;;;16.10;;
36137;SDS011;67787;50.074;21.904;2024-02-15T13:33:24;29.10;;;16.10;;
36137;SDS011;67787;50.074;21.904;2024-02-15T13:35:54;31.20;;;16.40;;
36137;SDS011;67787;50.074;21.904;2024-02-15T13:38:22;28.50;;;15.30;;
36137;SDS011;67787;50.074;21.904;2024-02-15T13:40:52;25.20;;;14.70;;
36137;SDS011;67787;50.074;21.904;2024-02-15T13:43:23;26.30;;;14.50;;
36137;SDS011;67787;50.074;21.904;2024-02-15T13:45:51;34.00;;;16.80;;
36137;SDS011;67787;50.074;21.904;2024-02-15T13:48:20;34.90;;;17.50;;
36137;SDS011;67787;50.074;21.904;2024-02-15T13:50:50;29.10;;;15.20;;
36137;SDS011;67787;50.074;21.904;2024-02-15T13:53:20;28.80;;;14.90;;
36137;SDS011;67787;50.074;21.904;2024-02-15T13:55:51;31.20;;;17.40;;
36137;SDS011;67787;50.074;21.904;2024-02-15T13:58:22;31.80;;;15.70;;
36137;SDS011;67787;50.074;21.904;2024-02-15T14:00:51;31.20;;;15.50;;
36137;SDS011;67787;50.074;21.904;2024-02-15T14:03:20;33.60;;;16.90;;
36137;SDS011;67787;50.074;21.904;2024-02-15T14:05:50;32.80;;;15.50;;
36137;SDS011;67787;50.074;21.904;2024-02-15T14:08:18;29.80;;;16.00;;
36137;SDS011;67787;50.074;21.904;2024-02-15T14:10:48;32.30;;;16.60;;
36137;SDS011;67787;50.074;21.904;2024-02-15T14:13:16;27.00;;;15.20;;
36137;SDS011;67787;50.074;21.904;2024-02-15T14:15:46;36.90;;;16.80;;
36137;SDS011;67787;50.074;21.904;2024-02-15T14:18:14;33.20;;;16.60;;
36137;SDS011;67787;50.074;21.904;2024-02-15T14:20:43;34.30;;;16.20;;
36137;SDS011;67787;50.074;21.904;2024-02-15T14:23:14;34.70;;;17.60;;
36137;SDS011;67787;50.074;21.904;2024-02-15T14:25:43;35.80;;;18.60;;
36137;SDS011;67787;50.074;21.904;2024-02-15T14:28:13;34.50;;;17.10;;
36137;SDS011;67787;50.074;21.904;2024-02-15T14:30:42;35.80;;;17.20;;
36137;SDS011;67787;50.074;21.904;2024-02-15T14:33:29;33.10;;;18.20;;
36137;SDS011;67787;50.074;21.904;2024-02-15T14:36:00;30.60;;;16.00;;
36137;SDS011;67787;50.074;21.904;2024-02-15T14:38:29;29.00;;;16.00;;
36137;SDS011;67787;50.074;21.904;2024-02-15T14:40:57;25.50;;;14.30;;
36137;SDS011;67787;50.074;21.904;2024-02-15T14:43:28;31.80;;;16.40;;
36137;SDS011;67787;50.074;21.904;2024-02-15T14:45:56;33.60;;;16.70;;
36137;SDS011;67787;50.074;21.904;2024-02-15T14:48:25;32.40;;;17.00;;
36137;SDS011;67787;50.074;21.904;2024-02-15T14:50:54;34.00;;;16.90;;
36137;SDS011;67787;50.074;21.904;2024-02-15T14:53:24;29.00;;;15.70;;
36137;SDS011;67787;50.074;21.904;2024-02-15T14:55:52;29.10;;;15.40;;